sensor_id;sensor_type;location;lat;lon;timestamp;temperature;humidity
3548;DHT22;1788;49.400;11.092;2023-08-06T00:01:55;18.00;69.50
3548;DHT22;1788;49.400;11.092;2023-08-06T00:04:22;18.00;68.80
3548;DHT22;1788;49.400;11.092;2023-08-06T00:06:49;17.90;69.00
3548;DHT22;1788;49.400;11.092;2023-08-06T00:09:15;17.80;69.10
3548;DHT22;1788;49.400;11.092;2023-08-06T00:11:42;17.70;69.30
3548;DHT22;1788;49.400;11.092;2023-08-06T00:14:09;17.60;69.80
3548;DHT22;1788;49.400;11.092;2023-08-06T00:16:36;17.60;69.70
3548;DHT22;1788;49.400;11.092;2023-08-06T00:19:03;17.50;70.90
3548;DHT22;1788;49.400;11.092;2023-08-06T00:21:30;17.50;70.10
3548;DHT22;1788;49.400;11.092;2023-08-06T00:23:57;17.50;71.10
3548;DHT22;1788;49.400;11.092;2023-08-06T00:26:24;17.40;70.40
3548;DHT22;1788;49.400;11.092;2023-08-06T00:28:50;17.50;70.70
3548;DHT22;1788;49.400;11.092;2023-08-06T00:31:17;17.40;70.80
3548;DHT22;1788;49.400;11.092;2023-08-06T00:33:44;17.50;71.10
3548;DHT22;1788;49.400;11.092;2023-08-06T00:36:11;17.70;71.40
3548;DHT22;1788;49.400;11.092;2023-08-06T00:38:38;17.60;71.20
3548;DHT22;1788;49.400;11.092;2023-08-06T00:41:05;17.90;71.30
3548;DHT22;1788;49.400;11.092;2023-08-06T00:43:32;17.80;71.20
3548;DHT22;1788;49.400;11.092;2023-08-06T00:45:58;18.00;71.30
3548;DHT22;1788;49.400;11.092;2023-08-06T00:48:25;18.00;71.10
3548;DHT22;1788;49.400;11.092;2023-08-06T00:50:51;18.10;71.10
3548;DHT22;1788;49.400;11.092;2023-08-06T00:53:19;18.10;70.90
3548;DHT22;1788;49.400;11.092;2023-08-06T00:55:45;18.10;70.90
3548;DHT22;1788;49.400;11.092;2023-08-06T00:58:13;18.10;71.10
3548;DHT22;1788;49.400;11.092;2023-08-06T01:00:40;18.10;71.20
3548;DHT22;1788;49.400;11.092;2023-08-06T01:03:07;18.10;71.20
3548;DHT22;1788;49.400;11.092;2023-08-06T01:05:33;18.10;71.20
3548;DHT22;1788;49.400;11.092;2023-08-06T01:08:05;18.00;71.00
3548;DHT22;1788;49.400;11.092;2023-08-06T01:17:46;18.00;71.30
3548;DHT22;1788;49.400;11.092;2023-08-06T01:20:13;18.00;71.40
3548;DHT22;1788;49.400;11.092;2023-08-06T01:22:40;18.00;71.40
3548;DHT22;1788;49.400;11.092;2023-08-06T01:25:07;18.00;71.40
3548;DHT22;1788;49.400;11.092;2023-08-06T01:27:37;18.10;71.40
3548;DHT22;1788;49.400;11.092;2023-08-06T01:30:03;18.10;71.30
3548;DHT22;1788;49.400;11.092;2023-08-06T01:32:27;18.20;71.20
3548;DHT22;1788;49.400;11.092;2023-08-06T01:34:54;18.20;71.10
3548;DHT22;1788;49.400;11.092;2023-08-06T01:37:21;18.30;71.10
3548;DHT22;1788;49.400;11.092;2023-08-06T01:39:47;18.30;71.10
3548;DHT22;1788;49.400;11.092;2023-08-06T01:42:14;18.40;71.10
3548;DHT22;1788;49.400;11.092;2023-08-06T01:44:40;18.40;71.00
3548;DHT22;1788;49.400;11.092;2023-08-06T01:47:07;18.40;70.90
3548;DHT22;1788;49.400;11.092;2023-08-06T01:49:34;18.40;70.80
3548;DHT22;1788;49.400;11.092;2023-08-06T01:52:00;18.50;70.90
3548;DHT22;1788;49.400;11.092;2023-08-06T01:54:27;18.50;70.90
3548;DHT22;1788;49.400;11.092;2023-08-06T01:56:54;18.50;70.90
3548;DHT22;1788;49.400;11.092;2023-08-06T01:59:20;18.60;70.90
3548;DHT22;1788;49.400;11.092;2023-08-06T02:01:47;18.50;70.80
3548;DHT22;1788;49.400;11.092;2023-08-06T02:04:14;18.60;70.90
3548;DHT22;1788;49.400;11.092;2023-08-06T02:06:41;18.60;70.90
3548;DHT22;1788;49.400;11.092;2023-08-06T02:09:08;18.60;70.90
3548;DHT22;1788;49.400;11.092;2023-08-06T02:11:35;18.50;70.80
3548;DHT22;1788;49.400;11.092;2023-08-06T02:14:02;18.50;71.00
3548;DHT22;1788;49.400;11.092;2023-08-06T02:16:29;18.40;70.80
3548;DHT22;1788;49.400;11.092;2023-08-06T02:18:55;18.40;70.90
3548;DHT22;1788;49.400;11.092;2023-08-06T02:21:22;18.40;70.90
3548;DHT22;1788;49.400;11.092;2023-08-06T02:23:49;18.40;71.00
3548;DHT22;1788;49.400;11.092;2023-08-06T02:26:16;18.40;71.00
3548;DHT22;1788;49.400;11.092;2023-08-06T02:28:42;18.40;71.80
3548;DHT22;1788;49.400;11.092;2023-08-06T02:31:09;18.40;71.00
3548;DHT22;1788;49.400;11.092;2023-08-06T02:33:36;18.30;70.90
3548;DHT22;1788;49.400;11.092;2023-08-06T02:36:02;18.30;70.90
3548;DHT22;1788;49.400;11.092;2023-08-06T02:38:29;18.40;70.90
3548;DHT22;1788;49.400;11.092;2023-08-06T02:40:56;18.40;70.90
3548;DHT22;1788;49.400;11.092;2023-08-06T02:43:22;18.40;70.90
3548;DHT22;1788;49.400;11.092;2023-08-06T02:45:49;18.40;70.90
3548;DHT22;1788;49.400;11.092;2023-08-06T02:48:16;18.40;70.70
3548;DHT22;1788;49.400;11.092;2023-08-06T02:50:43;18.40;70.70
3548;DHT22;1788;49.400;11.092;2023-08-06T02:53:10;18.40;70.50
3548;DHT22;1788;49.400;11.092;2023-08-06T02:55:37;18.40;70.50
3548;DHT22;1788;49.400;11.092;2023-08-06T02:58:03;18.40;70.40
3548;DHT22;1788;49.400;11.092;2023-08-06T03:00:30;18.40;70.40
3548;DHT22;1788;49.400;11.092;2023-08-06T03:02:57;18.40;70.40
3548;DHT22;1788;49.400;11.092;2023-08-06T03:05:23;18.40;70.30
3548;DHT22;1788;49.400;11.092;2023-08-06T03:07:50;18.40;70.30
3548;DHT22;1788;49.400;11.092;2023-08-06T03:10:16;18.40;70.30
3548;DHT22;1788;49.400;11.092;2023-08-06T03:12:43;18.40;70.30
3548;DHT22;1788;49.400;11.092;2023-08-06T03:15:10;18.30;70.20
3548;DHT22;1788;49.400;11.092;2023-08-06T03:17:37;18.30;70.20
3548;DHT22;1788;49.400;11.092;2023-08-06T03:20:04;18.30;70.20
3548;DHT22;1788;49.400;11.092;2023-08-06T03:22:30;18.20;71.00
3548;DHT22;1788;49.400;11.092;2023-08-06T03:24:57;18.20;70.20
3548;DHT22;1788;49.400;11.092;2023-08-06T03:27:24;18.20;70.30
3548;DHT22;1788;49.400;11.092;2023-08-06T03:29:51;18.20;70.30
3548;DHT22;1788;49.400;11.092;2023-08-06T03:32:18;18.10;70.30
3548;DHT22;1788;49.400;11.092;2023-08-06T03:34:45;18.10;70.20
3548;DHT22;1788;49.400;11.092;2023-08-06T03:37:11;18.10;70.20
3548;DHT22;1788;49.400;11.092;2023-08-06T03:39:38;18.10;69.50
3548;DHT22;1788;49.400;11.092;2023-08-06T03:42:05;18.10;70.20
3548;DHT22;1788;49.400;11.092;2023-08-06T03:44:31;18.00;70.10
3548;DHT22;1788;49.400;11.092;2023-08-06T03:46:58;18.00;70.10
3548;DHT22;1788;49.400;11.092;2023-08-06T03:49:25;18.00;70.20
3548;DHT22;1788;49.400;11.092;2023-08-06T03:51:51;18.00;70.10
3548;DHT22;1788;49.400;11.092;2023-08-06T03:54:19;17.90;70.40
3548;DHT22;1788;49.400;11.092;2023-08-06T03:56:45;17.90;70.00
3548;DHT22;1788;49.400;11.092;2023-08-06T03:59:12;17.90;69.90
3548;DHT22;1788;49.400;11.092;2023-08-06T04:01:38;17.90;69.90
3548;DHT22;1788;49.400;11.092;2023-08-06T04:04:05;17.90;69.90
3548;DHT22;1788;49.400;11.092;2023-08-06T04:06:32;17.80;69.80
3548;DHT22;1788;49.400;11.092;2023-08-06T04:08:59;17.80;69.80
3548;DHT22;1788;49.400;11.092;2023-08-06T04:11:26;17.80;69.90
3548;DHT22;1788;49.400;11.092;2023-08-06T04:13:53;17.70;69.80
3548;DHT22;1788;49.400;11.092;2023-08-06T04:16:21;17.70;69.90
3548;DHT22;1788;49.400;11.092;2023-08-06T04:18:47;17.70;69.90
3548;DHT22;1788;49.400;11.092;2023-08-06T04:21:14;17.60;69.80
3548;DHT22;1788;49.400;11.092;2023-08-06T04:23:40;17.60;69.80
3548;DHT22;1788;49.400;11.092;2023-08-06T04:26:07;17.60;69.90
3548;DHT22;1788;49.400;11.092;2023-08-06T04:28:33;17.50;69.80
3548;DHT22;1788;49.400;11.092;2023-08-06T04:31:00;17.50;69.80
3548;DHT22;1788;49.400;11.092;2023-08-06T04:33:27;17.50;69.80
3548;DHT22;1788;49.400;11.092;2023-08-06T04:35:54;17.50;69.80
3548;DHT22;1788;49.400;11.092;2023-08-06T04:38:21;17.40;69.80
3548;DHT22;1788;49.400;11.092;2023-08-06T04:40:47;17.40;69.70
3548;DHT22;1788;49.400;11.092;2023-08-06T04:43:14;17.40;69.80
3548;DHT22;1788;49.400;11.092;2023-08-06T04:48:07;17.40;69.90
3548;DHT22;1788;49.400;11.092;2023-08-06T04:50:34;17.30;69.90
3548;DHT22;1788;49.400;11.092;2023-08-06T04:53:01;17.30;69.90
3548;DHT22;1788;49.400;11.092;2023-08-06T04:55:28;17.30;70.90
3548;DHT22;1788;49.400;11.092;2023-08-06T04:57:55;17.20;69.90
3548;DHT22;1788;49.400;11.092;2023-08-06T05:00:22;17.30;70.10
3548;DHT22;1788;49.400;11.092;2023-08-06T05:02:48;17.20;70.00
3548;DHT22;1788;49.400;11.092;2023-08-06T05:05:15;17.20;70.10
3548;DHT22;1788;49.400;11.092;2023-08-06T05:07:42;17.20;70.30
3548;DHT22;1788;49.400;11.092;2023-08-06T05:10:09;17.20;70.30
3548;DHT22;1788;49.400;11.092;2023-08-06T05:12:36;17.30;70.60
3548;DHT22;1788;49.400;11.092;2023-08-06T05:15:03;17.30;70.50
3548;DHT22;1788;49.400;11.092;2023-08-06T05:17:31;17.40;71.60
3548;DHT22;1788;49.400;11.092;2023-08-06T05:19:58;17.40;70.80
3548;DHT22;1788;49.400;11.092;2023-08-06T05:22:24;17.40;70.80
3548;DHT22;1788;49.400;11.092;2023-08-06T05:24:51;17.50;70.90
3548;DHT22;1788;49.400;11.092;2023-08-06T05:27:18;17.50;70.90
3548;DHT22;1788;49.400;11.092;2023-08-06T05:29:45;17.50;71.00
3548;DHT22;1788;49.400;11.092;2023-08-06T05:32:11;17.60;71.00
3548;DHT22;1788;49.400;11.092;2023-08-06T05:34:38;17.70;71.00
3548;DHT22;1788;49.400;11.092;2023-08-06T05:37:05;17.70;71.00
3548;DHT22;1788;49.400;11.092;2023-08-06T05:39:32;17.70;71.00
3548;DHT22;1788;49.400;11.092;2023-08-06T05:41:59;17.80;71.10
3548;DHT22;1788;49.400;11.092;2023-08-06T05:44:26;17.70;71.00
3548;DHT22;1788;49.400;11.092;2023-08-06T05:46:53;17.70;71.10
3548;DHT22;1788;49.400;11.092;2023-08-06T05:49:19;17.80;71.20
3548;DHT22;1788;49.400;11.092;2023-08-06T05:51:47;17.80;71.40
3548;DHT22;1788;49.400;11.092;2023-08-06T05:54:13;17.80;71.30
3548;DHT22;1788;49.400;11.092;2023-08-06T05:56:40;17.90;71.40
3548;DHT22;1788;49.400;11.092;2023-08-06T05:59:07;17.90;71.30
3548;DHT22;1788;49.400;11.092;2023-08-06T06:01:33;17.90;71.30
3548;DHT22;1788;49.400;11.092;2023-08-06T06:04:01;18.00;71.50
3548;DHT22;1788;49.400;11.092;2023-08-06T06:06:27;17.90;71.30
3548;DHT22;1788;49.400;11.092;2023-08-06T06:08:55;18.00;71.60
3548;DHT22;1788;49.400;11.092;2023-08-06T06:11:21;18.00;72.40
3548;DHT22;1788;49.400;11.092;2023-08-06T06:13:50;18.10;71.80
3548;DHT22;1788;49.400;11.092;2023-08-06T06:16:14;18.20;71.90
3548;DHT22;1788;49.400;11.092;2023-08-06T06:18:41;18.30;71.90
3548;DHT22;1788;49.400;11.092;2023-08-06T06:21:09;18.40;71.70
3548;DHT22;1788;49.400;11.092;2023-08-06T06:23:35;18.40;71.70
3548;DHT22;1788;49.400;11.092;2023-08-06T06:26:02;18.40;71.80
3548;DHT22;1788;49.400;11.092;2023-08-06T06:28:29;18.30;71.60
3548;DHT22;1788;49.400;11.092;2023-08-06T06:33:23;18.30;71.80
3548;DHT22;1788;49.400;11.092;2023-08-06T06:35:50;18.20;71.80
3548;DHT22;1788;49.400;11.092;2023-08-06T06:38:16;18.10;71.80
3548;DHT22;1788;49.400;11.092;2023-08-06T06:40:43;18.00;71.80
3548;DHT22;1788;49.400;11.092;2023-08-06T06:43:10;17.80;72.00
3548;DHT22;1788;49.400;11.092;2023-08-06T06:45:37;17.80;71.90
3548;DHT22;1788;49.400;11.092;2023-08-06T06:48:04;17.70;73.00
3548;DHT22;1788;49.400;11.092;2023-08-06T06:50:31;17.70;72.20
3548;DHT22;1788;49.400;11.092;2023-08-06T06:52:57;17.70;72.50
3548;DHT22;1788;49.400;11.092;2023-08-06T06:55:25;17.80;72.80
3548;DHT22;1788;49.400;11.092;2023-08-06T06:57:53;17.80;72.90
3548;DHT22;1788;49.400;11.092;2023-08-06T07:00:19;17.80;72.80
3548;DHT22;1788;49.400;11.092;2023-08-06T07:02:46;17.80;72.70
3548;DHT22;1788;49.400;11.092;2023-08-06T07:05:12;17.80;72.60
3548;DHT22;1788;49.400;11.092;2023-08-06T07:07:39;17.70;72.70
3548;DHT22;1788;49.400;11.092;2023-08-06T07:10:06;17.70;72.90
3548;DHT22;1788;49.400;11.092;2023-08-06T07:12:32;17.70;73.00
3548;DHT22;1788;49.400;11.092;2023-08-06T07:14:59;17.80;73.20
3548;DHT22;1788;49.400;11.092;2023-08-06T07:17:26;17.80;73.30
3548;DHT22;1788;49.400;11.092;2023-08-06T07:19:53;17.90;73.70
3548;DHT22;1788;49.400;11.092;2023-08-06T07:22:20;17.90;73.70
3548;DHT22;1788;49.400;11.092;2023-08-06T07:24:46;18.00;73.70
3548;DHT22;1788;49.400;11.092;2023-08-06T07:27:13;18.10;73.70
3548;DHT22;1788;49.400;11.092;2023-08-06T07:29:39;18.10;74.40
3548;DHT22;1788;49.400;11.092;2023-08-06T07:32:07;18.20;73.50
3548;DHT22;1788;49.400;11.092;2023-08-06T07:34:33;18.20;73.50
3548;DHT22;1788;49.400;11.092;2023-08-06T07:37:01;18.30;74.40
3548;DHT22;1788;49.400;11.092;2023-08-06T07:39:27;18.20;73.40
3548;DHT22;1788;49.400;11.092;2023-08-06T07:41:55;18.30;74.00
3548;DHT22;1788;49.400;11.092;2023-08-06T07:44:21;18.30;73.60
3548;DHT22;1788;49.400;11.092;2023-08-06T07:46:48;18.30;73.40
3548;DHT22;1788;49.400;11.092;2023-08-06T07:49:15;18.30;73.40
3548;DHT22;1788;49.400;11.092;2023-08-06T07:51:41;18.20;73.20
3548;DHT22;1788;49.400;11.092;2023-08-06T07:54:09;18.20;73.40
3548;DHT22;1788;49.400;11.092;2023-08-06T07:56:35;18.20;73.40
3548;DHT22;1788;49.400;11.092;2023-08-06T07:59:03;18.30;73.70
3548;DHT22;1788;49.400;11.092;2023-08-06T08:01:29;18.30;73.60
3548;DHT22;1788;49.400;11.092;2023-08-06T08:03:56;18.30;73.50
3548;DHT22;1788;49.400;11.092;2023-08-06T08:06:22;18.30;73.40
3548;DHT22;1788;49.400;11.092;2023-08-06T08:08:49;18.30;73.30
3548;DHT22;1788;49.400;11.092;2023-08-06T08:11:16;18.40;73.50
3548;DHT22;1788;49.400;11.092;2023-08-06T08:13:42;18.50;73.90
3548;DHT22;1788;49.400;11.092;2023-08-06T08:16:09;18.70;74.00
3548;DHT22;1788;49.400;11.092;2023-08-06T08:18:35;18.90;73.70
3548;DHT22;1788;49.400;11.092;2023-08-06T08:21:03;19.10;72.60
3548;DHT22;1788;49.400;11.092;2023-08-06T08:23:29;19.10;72.60
3548;DHT22;1788;49.400;11.092;2023-08-06T08:25:56;19.10;72.30
3548;DHT22;1788;49.400;11.092;2023-08-06T08:28:23;19.00;71.90
3548;DHT22;1788;49.400;11.092;2023-08-06T08:30:49;19.00;71.90
3548;DHT22;1788;49.400;11.092;2023-08-06T08:33:16;18.80;71.90
3548;DHT22;1788;49.400;11.092;2023-08-06T08:35:43;18.70;72.10
3548;DHT22;1788;49.400;11.092;2023-08-06T08:38:09;18.50;72.20
3548;DHT22;1788;49.400;11.092;2023-08-06T08:40:37;18.40;72.60
3548;DHT22;1788;49.400;11.092;2023-08-06T08:43:03;18.30;73.20
3548;DHT22;1788;49.400;11.092;2023-08-06T08:45:30;18.30;73.10
3548;DHT22;1788;49.400;11.092;2023-08-06T08:47:56;18.30;72.90
3548;DHT22;1788;49.400;11.092;2023-08-06T08:50:24;18.20;72.70
3548;DHT22;1788;49.400;11.092;2023-08-06T08:52:50;18.20;72.50
3548;DHT22;1788;49.400;11.092;2023-08-06T08:55:17;18.10;72.60
3548;DHT22;1788;49.400;11.092;2023-08-06T08:57:44;18.10;72.50
3548;DHT22;1788;49.400;11.092;2023-08-06T09:00:11;18.20;71.80
3548;DHT22;1788;49.400;11.092;2023-08-06T09:02:38;18.20;72.50
3548;DHT22;1788;49.400;11.092;2023-08-06T09:05:05;18.10;73.20
3548;DHT22;1788;49.400;11.092;2023-08-06T09:07:32;18.10;72.40
3548;DHT22;1788;49.400;11.092;2023-08-06T09:09:58;18.10;72.50
3548;DHT22;1788;49.400;11.092;2023-08-06T09:12:25;18.10;72.50
3548;DHT22;1788;49.400;11.092;2023-08-06T09:14:51;18.10;72.50
3548;DHT22;1788;49.400;11.092;2023-08-06T09:17:19;18.20;72.50
3548;DHT22;1788;49.400;11.092;2023-08-06T09:19:46;18.20;72.50
3548;DHT22;1788;49.400;11.092;2023-08-06T09:22:13;18.30;72.70
3548;DHT22;1788;49.400;11.092;2023-08-06T09:24:41;18.50;72.80
3548;DHT22;1788;49.400;11.092;2023-08-06T09:27:10;18.60;72.50
3548;DHT22;1788;49.400;11.092;2023-08-06T09:29:32;18.90;72.50
3548;DHT22;1788;49.400;11.092;2023-08-06T09:32:00;19.20;72.50
3548;DHT22;1788;49.400;11.092;2023-08-06T09:34:26;19.20;71.70
3548;DHT22;1788;49.400;11.092;2023-08-06T09:36:54;19.40;71.10
3548;DHT22;1788;49.400;11.092;2023-08-06T09:39:21;19.40;70.30
3548;DHT22;1788;49.400;11.092;2023-08-06T09:41:46;19.50;70.10
3548;DHT22;1788;49.400;11.092;2023-08-06T09:46:40;19.50;69.20
3548;DHT22;1788;49.400;11.092;2023-08-06T09:49:08;19.60;68.30
3548;DHT22;1788;49.400;11.092;2023-08-06T09:51:34;19.60;68.30
3548;DHT22;1788;49.400;11.092;2023-08-06T09:54:02;19.60;67.30
3548;DHT22;1788;49.400;11.092;2023-08-06T09:56:28;19.50;67.20
3548;DHT22;1788;49.400;11.092;2023-08-06T09:58:55;19.50;67.10
3548;DHT22;1788;49.400;11.092;2023-08-06T10:01:22;19.50;67.10
3548;DHT22;1788;49.400;11.092;2023-08-06T10:03:48;19.40;66.70
3548;DHT22;1788;49.400;11.092;2023-08-06T10:06:16;19.30;66.40
3548;DHT22;1788;49.400;11.092;2023-08-06T10:08:42;19.30;66.30
3548;DHT22;1788;49.400;11.092;2023-08-06T10:11:09;19.20;66.40
3548;DHT22;1788;49.400;11.092;2023-08-06T10:13:36;19.20;66.30
3548;DHT22;1788;49.400;11.092;2023-08-06T10:16:03;19.20;66.20
3548;DHT22;1788;49.400;11.092;2023-08-06T10:18:29;19.20;66.20
3548;DHT22;1788;49.400;11.092;2023-08-06T10:20:57;19.10;65.90
3548;DHT22;1788;49.400;11.092;2023-08-06T10:23:32;19.10;65.80
3548;DHT22;1788;49.400;11.092;2023-08-06T10:25:53;19.10;65.70
3548;DHT22;1788;49.400;11.092;2023-08-06T10:28:17;19.00;65.50
3548;DHT22;1788;49.400;11.092;2023-08-06T10:30:45;19.10;65.50
3548;DHT22;1788;49.400;11.092;2023-08-06T10:33:11;19.10;65.50
3548;DHT22;1788;49.400;11.092;2023-08-06T10:40:33;19.20;65.20
3548;DHT22;1788;49.400;11.092;2023-08-06T10:43:00;19.10;65.60
3548;DHT22;1788;49.400;11.092;2023-08-06T10:45:27;19.10;65.00
3548;DHT22;1788;49.400;11.092;2023-08-06T10:47:54;19.30;66.50
3548;DHT22;1788;49.400;11.092;2023-08-06T10:50:21;19.30;65.60
3548;DHT22;1788;49.400;11.092;2023-08-06T10:52:47;19.40;65.10
3548;DHT22;1788;49.400;11.092;2023-08-06T10:55:14;19.60;65.00
3548;DHT22;1788;49.400;11.092;2023-08-06T10:57:40;19.70;64.70
3548;DHT22;1788;49.400;11.092;2023-08-06T11:00:08;20.00;64.00
3548;DHT22;1788;49.400;11.092;2023-08-06T11:02:35;20.00;64.00
3548;DHT22;1788;49.400;11.092;2023-08-06T11:07:29;20.00;63.00
3548;DHT22;1788;49.400;11.092;2023-08-06T11:10:00;19.90;63.30
3548;DHT22;1788;49.400;11.092;2023-08-06T11:12:22;19.90;63.90
3548;DHT22;1788;49.400;11.092;2023-08-06T11:17:16;20.10;64.80
3548;DHT22;1788;49.400;11.092;2023-08-06T11:19:42;20.10;64.80
3548;DHT22;1788;49.400;11.092;2023-08-06T11:22:10;20.40;63.90
3548;DHT22;1788;49.400;11.092;2023-08-06T11:24:37;20.40;63.80
3548;DHT22;1788;49.400;11.092;2023-08-06T11:27:10;20.40;63.30
3548;DHT22;1788;49.400;11.092;2023-08-06T11:29:29;20.50;63.30
3548;DHT22;1788;49.400;11.092;2023-08-06T11:32:03;20.60;63.20
3548;DHT22;1788;49.400;11.092;2023-08-06T11:34:23;20.80;63.00
3548;DHT22;1788;49.400;11.092;2023-08-06T11:36:49;20.80;62.50
3548;DHT22;1788;49.400;11.092;2023-08-06T11:39:16;21.00;62.20
3548;DHT22;1788;49.400;11.092;2023-08-06T11:41:43;21.10;61.70
3548;DHT22;1788;49.400;11.092;2023-08-06T11:44:10;20.90;60.90
3548;DHT22;1788;49.400;11.092;2023-08-06T11:49:03;20.80;61.10
3548;DHT22;1788;49.400;11.092;2023-08-06T11:51:30;20.80;61.80
3548;DHT22;1788;49.400;11.092;2023-08-06T11:53:57;20.90;62.20
3548;DHT22;1788;49.400;11.092;2023-08-06T11:56:24;21.20;61.10
3548;DHT22;1788;49.400;11.092;2023-08-06T11:58:50;21.20;61.10
3548;DHT22;1788;49.400;11.092;2023-08-06T12:01:18;21.30;60.30
3548;DHT22;1788;49.400;11.092;2023-08-06T12:03:44;21.30;60.10
3548;DHT22;1788;49.400;11.092;2023-08-06T12:06:10;21.20;59.80
3548;DHT22;1788;49.400;11.092;2023-08-06T12:08:37;21.20;59.60
3548;DHT22;1788;49.400;11.092;2023-08-06T12:11:03;21.30;59.60
3548;DHT22;1788;49.400;11.092;2023-08-06T12:13:30;21.20;59.30
3548;DHT22;1788;49.400;11.092;2023-08-06T12:15:57;21.10;59.40
3548;DHT22;1788;49.400;11.092;2023-08-06T12:18:24;20.70;60.00
3548;DHT22;1788;49.400;11.092;2023-08-06T12:20:51;20.70;60.00
3548;DHT22;1788;49.400;11.092;2023-08-06T12:23:18;20.50;61.60
3548;DHT22;1788;49.400;11.092;2023-08-06T12:25:45;20.50;60.80
3548;DHT22;1788;49.400;11.092;2023-08-06T12:28:11;20.50;60.90
3548;DHT22;1788;49.400;11.092;2023-08-06T12:30:38;20.50;61.70
3548;DHT22;1788;49.400;11.092;2023-08-06T12:33:04;20.50;61.00
3548;DHT22;1788;49.400;11.092;2023-08-06T12:35:32;20.90;59.90
3548;DHT22;1788;49.400;11.092;2023-08-06T12:37:59;20.90;59.80
3548;DHT22;1788;49.400;11.092;2023-08-06T12:40:26;21.00;59.60
3548;DHT22;1788;49.400;11.092;2023-08-06T12:42:53;21.00;59.00
3548;DHT22;1788;49.400;11.092;2023-08-06T12:45:20;20.90;58.90
3548;DHT22;1788;49.400;11.092;2023-08-06T12:47:46;20.80;59.00
3548;DHT22;1788;49.400;11.092;2023-08-06T12:50:14;20.90;59.10
3548;DHT22;1788;49.400;11.092;2023-08-06T12:52:40;20.80;59.00
3548;DHT22;1788;49.400;11.092;2023-08-06T12:55:07;20.90;58.90
3548;DHT22;1788;49.400;11.092;2023-08-06T12:57:33;20.90;58.80
3548;DHT22;1788;49.400;11.092;2023-08-06T13:00:00;20.80;58.70
3548;DHT22;1788;49.400;11.092;2023-08-06T13:02:27;20.70;58.70
3548;DHT22;1788;49.400;11.092;2023-08-06T13:04:53;20.60;58.60
3548;DHT22;1788;49.400;11.092;2023-08-06T13:07:20;20.60;58.70
3548;DHT22;1788;49.400;11.092;2023-08-06T13:09:47;20.50;58.70
3548;DHT22;1788;49.400;11.092;2023-08-06T13:12:14;20.20;59.10
3548;DHT22;1788;49.400;11.092;2023-08-06T13:14:41;20.20;59.10
3548;DHT22;1788;49.400;11.092;2023-08-06T13:17:07;20.10;59.80
3548;DHT22;1788;49.400;11.092;2023-08-06T13:19:34;20.20;59.40
3548;DHT22;1788;49.400;11.092;2023-08-06T13:22:01;20.30;59.50
3548;DHT22;1788;49.400;11.092;2023-08-06T13:24:28;20.60;59.00
3548;DHT22;1788;49.400;11.092;2023-08-06T13:26:54;20.60;58.90
3548;DHT22;1788;49.400;11.092;2023-08-06T13:29:22;20.50;58.60
3548;DHT22;1788;49.400;11.092;2023-08-06T13:31:48;20.50;58.60
3548;DHT22;1788;49.400;11.092;2023-08-06T13:34:15;20.50;58.70
3548;DHT22;1788;49.400;11.092;2023-08-06T13:36:42;20.30;58.60
3548;DHT22;1788;49.400;11.092;2023-08-06T13:39:08;20.20;58.70
3548;DHT22;1788;49.400;11.092;2023-08-06T13:41:35;20.10;58.80
3548;DHT22;1788;49.400;11.092;2023-08-06T13:44:01;20.00;58.70
3548;DHT22;1788;49.400;11.092;2023-08-06T13:46:28;19.80;58.80
3548;DHT22;1788;49.400;11.092;2023-08-06T13:48:55;19.60;59.00
3548;DHT22;1788;49.400;11.092;2023-08-06T13:51:22;19.30;59.40
3548;DHT22;1788;49.400;11.092;2023-08-06T13:53:49;19.30;59.40
3548;DHT22;1788;49.400;11.092;2023-08-06T13:56:15;19.20;59.70
3548;DHT22;1788;49.400;11.092;2023-08-06T13:58:42;19.10;60.60
3548;DHT22;1788;49.400;11.092;2023-08-06T14:03:36;18.70;60.40
3548;DHT22;1788;49.400;11.092;2023-08-06T14:06:02;18.70;60.40
3548;DHT22;1788;49.400;11.092;2023-08-06T14:08:30;18.50;61.60
3548;DHT22;1788;49.400;11.092;2023-08-06T14:10:56;18.50;61.30
3548;DHT22;1788;49.400;11.092;2023-08-06T14:13:24;18.40;61.40
3548;DHT22;1788;49.400;11.092;2023-08-06T14:15:50;18.30;61.80
3548;DHT22;1788;49.400;11.092;2023-08-06T14:18:18;18.10;62.80
3548;DHT22;1788;49.400;11.092;2023-08-06T14:20:44;18.10;62.80
3548;DHT22;1788;49.400;11.092;2023-08-06T14:23:12;17.80;64.00
3548;DHT22;1788;49.400;11.092;2023-08-06T14:25:39;17.70;63.80
3548;DHT22;1788;49.400;11.092;2023-08-06T14:28:06;17.60;64.60
3548;DHT22;1788;49.400;11.092;2023-08-06T14:30:32;17.50;65.20
3548;DHT22;1788;49.400;11.092;2023-08-06T14:32:59;17.40;65.80
3548;DHT22;1788;49.400;11.092;2023-08-06T14:35:25;17.30;66.40
3548;DHT22;1788;49.400;11.092;2023-08-06T14:37:53;17.20;66.90
3548;DHT22;1788;49.400;11.092;2023-08-06T14:40:20;17.00;67.60
3548;DHT22;1788;49.400;11.092;2023-08-06T14:42:46;17.00;67.60
3548;DHT22;1788;49.400;11.092;2023-08-06T14:45:14;17.00;67.80
3548;DHT22;1788;49.400;11.092;2023-08-06T14:47:40;17.00;68.20
3548;DHT22;1788;49.400;11.092;2023-08-06T14:50:07;17.00;68.30
3548;DHT22;1788;49.400;11.092;2023-08-06T14:52:34;17.00;68.50
3548;DHT22;1788;49.400;11.092;2023-08-06T14:55:00;17.00;68.60
3548;DHT22;1788;49.400;11.092;2023-08-06T14:57:28;17.00;68.70
3548;DHT22;1788;49.400;11.092;2023-08-06T14:59:54;17.00;68.60
3548;DHT22;1788;49.400;11.092;2023-08-06T15:02:22;17.20;68.90
3548;DHT22;1788;49.400;11.092;2023-08-06T15:04:48;17.20;68.90
3548;DHT22;1788;49.400;11.092;2023-08-06T15:07:15;17.20;68.60
3548;DHT22;1788;49.400;11.092;2023-08-06T15:09:41;17.30;68.40
3548;DHT22;1788;49.400;11.092;2023-08-06T15:12:08;17.30;68.30
3548;DHT22;1788;49.400;11.092;2023-08-06T15:14:35;17.40;68.00
3548;DHT22;1788;49.400;11.092;2023-08-06T15:17:02;17.40;68.00
3548;DHT22;1788;49.400;11.092;2023-08-06T15:19:29;17.50;67.80
3548;DHT22;1788;49.400;11.092;2023-08-06T15:21:55;17.50;67.50
3548;DHT22;1788;49.400;11.092;2023-08-06T15:24:22;17.60;67.30
3548;DHT22;1788;49.400;11.092;2023-08-06T15:26:48;17.60;66.90
3548;DHT22;1788;49.400;11.092;2023-08-06T15:29:15;17.60;66.60
3548;DHT22;1788;49.400;11.092;2023-08-06T15:31:42;17.60;66.60
3548;DHT22;1788;49.400;11.092;2023-08-06T15:34:09;17.50;66.30
3548;DHT22;1788;49.400;11.092;2023-08-06T15:36:36;17.50;66.20
3548;DHT22;1788;49.400;11.092;2023-08-06T15:39:02;17.60;66.30
3548;DHT22;1788;49.400;11.092;2023-08-06T15:41:29;17.50;66.20
3548;DHT22;1788;49.400;11.092;2023-08-06T15:43:55;17.50;66.20
3548;DHT22;1788;49.400;11.092;2023-08-06T15:46:22;17.50;66.20
3548;DHT22;1788;49.400;11.092;2023-08-06T15:48:48;17.50;66.10
3548;DHT22;1788;49.400;11.092;2023-08-06T15:51:15;17.40;66.10
3548;DHT22;1788;49.400;11.092;2023-08-06T15:53:42;17.40;66.10
3548;DHT22;1788;49.400;11.092;2023-08-06T15:56:08;17.40;66.20
3548;DHT22;1788;49.400;11.092;2023-08-06T15:58:35;17.40;66.30
3548;DHT22;1788;49.400;11.092;2023-08-06T16:01:01;17.30;66.30
3548;DHT22;1788;49.400;11.092;2023-08-06T16:03:28;17.30;66.30
3548;DHT22;1788;49.400;11.092;2023-08-06T16:05:55;17.30;66.40
3548;DHT22;1788;49.400;11.092;2023-08-06T16:08:22;17.20;66.30
3548;DHT22;1788;49.400;11.092;2023-08-06T16:10:49;17.20;67.00